sensor_id;sensor_type;location;lat;lon;timestamp;P1;durP1;ratioP1;P2;durP2;ratioP2
21448;SDS011;10885;52.830;13.788;2023-04-29T05:18:47;14.80;;;9.82;;
21448;SDS011;10885;52.830;13.788;2023-04-29T05:24:09;18.38;;;10.27;;
21448;SDS011;10885;52.830;13.788;2023-04-29T05:29:30;18.00;;;10.88;;
21448;SDS011;10885;52.830;13.788;2023-04-29T05:34:55;17.52;;;11.02;;
21448;SDS011;10885;52.830;13.788;2023-04-29T05:40:16;15.95;;;10.80;;
21448;SDS011;10885;52.830;13.788;2023-04-29T05:45:38;14.32;;;9.90;;
21448;SDS011;10885;52.830;13.788;2023-04-29T05:50:59;14.90;;;10.55;;
21448;SDS011;10885;52.830;13.788;2023-04-29T05:56:24;17.15;;;10.60;;
21448;SDS011;10885;52.830;13.788;2023-04-29T06:01:47;15.57;;;10.70;;
21448;SDS011;10885;52.830;13.788;2023-04-29T06:07:09;18.95;;;12.45;;
21448;SDS011;10885;52.830;13.788;2023-04-29T06:12:56;18.92;;;12.15;;
21448;SDS011;10885;52.830;13.788;2023-04-29T06:18:17;22.15;;;11.75;;
21448;SDS011;10885;52.830;13.788;2023-04-29T06:23:38;19.77;;;12.27;;
21448;SDS011;10885;52.830;13.788;2023-04-29T06:29:08;17.83;;;12.25;;
21448;SDS011;10885;52.830;13.788;2023-04-29T06:34:29;17.45;;;11.35;;
21448;SDS011;10885;52.830;13.788;2023-04-29T06:40:12;14.73;;;11.05;;
21448;SDS011;10885;52.830;13.788;2023-04-29T06:45:51;21.52;;;13.00;;
21448;SDS011;10885;52.830;13.788;2023-04-29T06:51:15;19.52;;;12.15;;
21448;SDS011;10885;52.830;13.788;2023-04-29T06:56:36;17.75;;;13.15;;
21448;SDS011;10885;52.830;13.788;2023-04-29T07:01:57;22.77;;;15.20;;
21448;SDS011;10885;52.830;13.788;2023-04-29T07:07:18;20.80;;;15.65;;
21448;SDS011;10885;52.830;13.788;2023-04-29T07:12:40;22.15;;;16.25;;
21448;SDS011;10885;52.830;13.788;2023-04-29T07:18:02;21.52;;;16.52;;
21448;SDS011;10885;52.830;13.788;2023-04-29T07:23:25;25.33;;;17.98;;
21448;SDS011;10885;52.830;13.788;2023-04-29T07:28:47;19.33;;;15.02;;
21448;SDS011;10885;52.830;13.788;2023-04-29T07:34:09;23.88;;;17.33;;
21448;SDS011;10885;52.830;13.788;2023-04-29T07:39:31;23.45;;;16.33;;
21448;SDS011;10885;52.830;13.788;2023-04-29T07:44:52;21.85;;;16.83;;
21448;SDS011;10885;52.830;13.788;2023-04-29T07:50:13;25.08;;;17.77;;
21448;SDS011;10885;52.830;13.788;2023-04-29T07:55:38;20.50;;;15.85;;
21448;SDS011;10885;52.830;13.788;2023-04-29T08:01:07;21.15;;;15.13;;
21448;SDS011;10885;52.830;13.788;2023-04-29T08:06:31;23.92;;;14.95;;
21448;SDS011;10885;52.830;13.788;2023-04-29T08:11:53;18.67;;;14.18;;
21448;SDS011;10885;52.830;13.788;2023-04-29T08:17:13;18.63;;;14.98;;
21448;SDS011;10885;52.830;13.788;2023-04-29T08:27:56;15.75;;;12.52;;
21448;SDS011;10885;52.830;13.788;2023-04-29T08:33:17;14.60;;;11.85;;
21448;SDS011;10885;52.830;13.788;2023-04-29T08:38:38;19.65;;;13.13;;
21448;SDS011;10885;52.830;13.788;2023-04-29T08:44:00;16.83;;;11.93;;
21448;SDS011;10885;52.830;13.788;2023-04-29T08:49:21;17.08;;;12.63;;
21448;SDS011;10885;52.830;13.788;2023-04-29T08:54:42;22.05;;;16.02;;
21448;SDS011;10885;52.830;13.788;2023-04-29T09:00:05;30.65;;;21.42;;
21448;SDS011;10885;52.830;13.788;2023-04-29T09:05:28;27.88;;;21.00;;
21448;SDS011;10885;52.830;13.788;2023-04-29T09:10:50;34.53;;;22.88;;
21448;SDS011;10885;52.830;13.788;2023-04-29T09:16:12;40.53;;;26.70;;
21448;SDS011;10885;52.830;13.788;2023-04-29T09:21:33;35.60;;;26.02;;
21448;SDS011;10885;52.830;13.788;2023-04-29T09:26:55;40.22;;;26.77;;
21448;SDS011;10885;52.830;13.788;2023-04-29T09:32:17;38.63;;;26.08;;
21448;SDS011;10885;52.830;13.788;2023-04-29T09:37:42;42.15;;;26.95;;
21448;SDS011;10885;52.830;13.788;2023-04-29T09:43:03;43.90;;;27.20;;
21448;SDS011;10885;52.830;13.788;2023-04-29T09:48:33;47.00;;;26.83;;
21448;SDS011;10885;52.830;13.788;2023-04-29T09:53:55;45.30;;;27.52;;
21448;SDS011;10885;52.830;13.788;2023-04-29T09:59:16;41.40;;;26.75;;
21448;SDS011;10885;52.830;13.788;2023-04-29T10:04:43;40.90;;;27.65;;
21448;SDS011;10885;52.830;13.788;2023-04-29T10:10:06;43.70;;;28.48;;
21448;SDS011;10885;52.830;13.788;2023-04-29T10:20:59;34.70;;;23.55;;
21448;SDS011;10885;52.830;13.788;2023-04-29T10:26:26;36.17;;;25.20;;
21448;SDS011;10885;52.830;13.788;2023-04-29T10:31:49;31.77;;;22.67;;
21448;SDS011;10885;52.830;13.788;2023-04-29T10:37:11;36.40;;;22.40;;
21448;SDS011;10885;52.830;13.788;2023-04-29T10:42:46;30.73;;;20.77;;
21448;SDS011;10885;52.830;13.788;2023-04-29T10:48:10;27.05;;;19.20;;
21448;SDS011;10885;52.830;13.788;2023-04-29T10:53:32;25.65;;;19.10;;
21448;SDS011;10885;52.830;13.788;2023-04-29T10:58:54;24.48;;;17.13;;
21448;SDS011;10885;52.830;13.788;2023-04-29T11:04:15;30.00;;;18.73;;
21448;SDS011;10885;52.830;13.788;2023-04-29T11:09:38;31.08;;;18.38;;
21448;SDS011;10885;52.830;13.788;2023-04-29T11:15:00;29.02;;;18.17;;
21448;SDS011;10885;52.830;13.788;2023-04-29T11:20:24;22.38;;;15.63;;
21448;SDS011;10885;52.830;13.788;2023-04-29T11:25:45;20.30;;;15.20;;
21448;SDS011;10885;52.830;13.788;2023-04-29T11:31:06;20.02;;;14.45;;
21448;SDS011;10885;52.830;13.788;2023-04-29T11:36:27;20.90;;;14.52;;
21448;SDS011;10885;52.830;13.788;2023-04-29T11:42:01;19.35;;;13.73;;
21448;SDS011;10885;52.830;13.788;2023-04-29T11:47:26;19.70;;;13.80;;
21448;SDS011;10885;52.830;13.788;2023-04-29T11:52:49;16.92;;;11.35;;
21448;SDS011;10885;52.830;13.788;2023-04-29T11:58:10;15.75;;;11.23;;
21448;SDS011;10885;52.830;13.788;2023-04-29T12:03:32;17.77;;;11.38;;
21448;SDS011;10885;52.830;13.788;2023-04-29T12:08:53;15.63;;;11.20;;
21448;SDS011;10885;52.830;13.788;2023-04-29T12:14:15;21.02;;;11.55;;
21448;SDS011;10885;52.830;13.788;2023-04-29T12:19:38;15.82;;;10.57;;
21448;SDS011;10885;52.830;13.788;2023-04-29T12:25:03;15.07;;;11.32;;
21448;SDS011;10885;52.830;13.788;2023-04-29T12:30:25;15.93;;;11.23;;
21448;SDS011;10885;52.830;13.788;2023-04-29T12:35:47;15.02;;;10.15;;
21448;SDS011;10885;52.830;13.788;2023-04-29T12:41:10;15.23;;;10.07;;
21448;SDS011;10885;52.830;13.788;2023-04-29T12:46:34;16.02;;;10.50;;
21448;SDS011;10885;52.830;13.788;2023-04-29T12:51:57;16.35;;;9.82;;
21448;SDS011;10885;52.830;13.788;2023-04-29T12:57:18;16.20;;;10.73;;
21448;SDS011;10885;52.830;13.788;2023-04-29T13:02:39;15.50;;;10.23;;
21448;SDS011;10885;52.830;13.788;2023-04-29T13:08:01;13.73;;;10.25;;
21448;SDS011;10885;52.830;13.788;2023-04-29T13:13:22;15.05;;;9.23;;
21448;SDS011;10885;52.830;13.788;2023-04-29T13:18:43;15.65;;;10.13;;
21448;SDS011;10885;52.830;13.788;2023-04-29T13:24:08;19.05;;;10.85;;
21448;SDS011;10885;52.830;13.788;2023-04-29T13:29:30;16.80;;;9.32;;
21448;SDS011;10885;52.830;13.788;2023-04-29T13:34:51;13.95;;;10.35;;
21448;SDS011;10885;52.830;13.788;2023-04-29T13:40:12;15.52;;;10.65;;
21448;SDS011;10885;52.830;13.788;2023-04-29T13:45:39;18.63;;;10.32;;
21448;SDS011;10885;52.830;13.788;2023-04-29T13:51:02;18.88;;;9.65;;
21448;SDS011;10885;52.830;13.788;2023-04-29T13:56:43;12.60;;;8.20;;
21448;SDS011;10885;52.830;13.788;2023-04-29T14:02:08;10.60;;;7.18;;
21448;SDS011;10885;52.830;13.788;2023-04-29T14:07:42;11.48;;;7.15;;
21448;SDS011;10885;52.830;13.788;2023-04-29T14:19:22;10.13;;;7.18;;
21448;SDS011;10885;52.830;13.788;2023-04-29T14:24:43;10.82;;;7.30;;
21448;SDS011;10885;52.830;13.788;2023-04-29T14:30:04;12.32;;;6.75;;
21448;SDS011;10885;52.830;13.788;2023-04-29T14:35:26;12.98;;;6.72;;
21448;SDS011;10885;52.830;13.788;2023-04-29T14:40:47;12.48;;;7.05;;
21448;SDS011;10885;52.830;13.788;2023-04-29T14:46:08;10.10;;;6.65;;
21448;SDS011;10885;52.830;13.788;2023-04-29T14:51:30;12.95;;;7.00;;
21448;SDS011;10885;52.830;13.788;2023-04-29T14:56:51;10.93;;;5.90;;
21448;SDS011;10885;52.830;13.788;2023-04-29T15:02:12;10.10;;;6.35;;
21448;SDS011;10885;52.830;13.788;2023-04-29T15:07:33;9.65;;;6.15;;
21448;SDS011;10885;52.830;13.788;2023-04-29T15:12:55;16.88;;;7.45;;
21448;SDS011;10885;52.830;13.788;2023-04-29T15:18:16;10.27;;;6.47;;
21448;SDS011;10885;52.830;13.788;2023-04-29T15:23:37;9.85;;;6.75;;
21448;SDS011;10885;52.830;13.788;2023-04-29T15:28:59;9.18;;;5.50;;
21448;SDS011;10885;52.830;13.788;2023-04-29T15:34:20;9.90;;;5.72;;
21448;SDS011;10885;52.830;13.788;2023-04-29T15:39:42;9.27;;;6.45;;
21448;SDS011;10885;52.830;13.788;2023-04-29T15:45:03;9.70;;;5.38;;
21448;SDS011;10885;52.830;13.788;2023-04-29T15:50:24;8.13;;;5.88;;
21448;SDS011;10885;52.830;13.788;2023-04-29T15:55:45;8.80;;;6.28;;
21448;SDS011;10885;52.830;13.788;2023-04-29T16:01:07;12.10;;;5.65;;
21448;SDS011;10885;52.830;13.788;2023-04-29T16:06:28;14.00;;;6.60;;
21448;SDS011;10885;52.830;13.788;2023-04-29T16:11:49;11.13;;;6.18;;
21448;SDS011;10885;52.830;13.788;2023-04-29T16:17:13;10.38;;;5.78;;
21448;SDS011;10885;52.830;13.788;2023-04-29T16:22:34;10.80;;;5.75;;
21448;SDS011;10885;52.830;13.788;2023-04-29T16:27:55;13.20;;;5.93;;
21448;SDS011;10885;52.830;13.788;2023-04-29T16:33:17;9.73;;;5.00;;
21448;SDS011;10885;52.830;13.788;2023-04-29T16:38:38;7.57;;;4.53;;
21448;SDS011;10885;52.830;13.788;2023-04-29T16:43:59;6.97;;;4.72;;
21448;SDS011;10885;52.830;13.788;2023-04-29T16:49:23;6.00;;;4.32;;
21448;SDS011;10885;52.830;13.788;2023-04-29T16:54:48;8.38;;;4.20;;
21448;SDS011;10885;52.830;13.788;2023-04-29T17:00:09;4.15;;;3.17;;
21448;SDS011;10885;52.830;13.788;2023-04-29T17:05:31;6.10;;;3.47;;
21448;SDS011;10885;52.830;13.788;2023-04-29T17:10:52;9.50;;;4.07;;
21448;SDS011;10885;52.830;13.788;2023-04-29T17:16:14;4.85;;;3.72;;
21448;SDS011;10885;52.830;13.788;2023-04-29T17:21:35;6.82;;;3.13;;
21448;SDS011;10885;52.830;13.788;2023-04-29T17:26:56;6.90;;;3.42;;
21448;SDS011;10885;52.830;13.788;2023-04-29T17:32:19;6.88;;;3.63;;
21448;SDS011;10885;52.830;13.788;2023-04-29T17:37:47;7.57;;;4.20;;
21448;SDS011;10885;52.830;13.788;2023-04-29T17:48:29;9.80;;;4.37;;
21448;SDS011;10885;52.830;13.788;2023-04-29T17:53:51;5.85;;;3.38;;
21448;SDS011;10885;52.830;13.788;2023-04-29T17:59:13;4.88;;;4.00;;
21448;SDS011;10885;52.830;13.788;2023-04-29T18:09:56;11.35;;;3.85;;
21448;SDS011;10885;52.830;13.788;2023-04-29T18:15:17;5.00;;;3.97;;
21448;SDS011;10885;52.830;13.788;2023-04-29T18:20:42;4.97;;;3.47;;
21448;SDS011;10885;52.830;13.788;2023-04-29T18:26:03;6.68;;;4.07;;
21448;SDS011;10885;52.830;13.788;2023-04-29T18:31:25;6.93;;;3.78;;
21448;SDS011;10885;52.830;13.788;2023-04-29T18:36:46;8.15;;;3.90;;
21448;SDS011;10885;52.830;13.788;2023-04-29T18:47:28;8.77;;;5.50;;
21448;SDS011;10885;52.830;13.788;2023-04-29T18:58:09;12.50;;;7.22;;
21448;SDS011;10885;52.830;13.788;2023-04-29T19:03:30;10.07;;;4.65;;
21448;SDS011;10885;52.830;13.788;2023-04-29T19:08:51;7.00;;;3.58;;
21448;SDS011;10885;52.830;13.788;2023-04-29T19:14:12;9.40;;;4.32;;
21448;SDS011;10885;52.830;13.788;2023-04-29T19:19:33;9.82;;;5.32;;
21448;SDS011;10885;52.830;13.788;2023-04-29T19:24:54;13.02;;;5.35;;
21448;SDS011;10885;52.830;13.788;2023-04-29T19:35:36;7.95;;;5.43;;
21448;SDS011;10885;52.830;13.788;2023-04-29T19:40:57;11.38;;;5.93;;
21448;SDS011;10885;52.830;13.788;2023-04-29T19:51:39;10.27;;;4.93;;
21448;SDS011;10885;52.830;13.788;2023-04-29T19:57:00;13.10;;;6.80;;
21448;SDS011;10885;52.830;13.788;2023-04-29T20:02:22;8.38;;;6.03;;
21448;SDS011;10885;52.830;13.788;2023-04-29T20:07:43;9.80;;;5.22;;
21448;SDS011;10885;52.830;13.788;2023-04-29T20:13:05;8.48;;;4.03;;
21448;SDS011;10885;52.830;13.788;2023-04-29T20:23:46;10.63;;;5.50;;
21448;SDS011;10885;52.830;13.788;2023-04-29T20:29:08;9.25;;;4.82;;
21448;SDS011;10885;52.830;13.788;2023-04-29T20:34:30;14.25;;;5.28;;
21448;SDS011;10885;52.830;13.788;2023-04-29T20:39:51;7.93;;;4.45;;
21448;SDS011;10885;52.830;13.788;2023-04-29T20:45:13;7.85;;;4.15;;
21448;SDS011;10885;52.830;13.788;2023-04-29T20:50:34;6.97;;;4.05;;
21448;SDS011;10885;52.830;13.788;2023-04-29T21:01:15;8.52;;;4.25;;
21448;SDS011;10885;52.830;13.788;2023-04-29T21:06:38;7.97;;;4.18;;
21448;SDS011;10885;52.830;13.788;2023-04-29T21:12:00;5.28;;;4.00;;
21448;SDS011;10885;52.830;13.788;2023-04-29T21:17:23;12.90;;;4.40;;
21448;SDS011;10885;52.830;13.788;2023-04-29T21:28:05;5.97;;;3.25;;
21448;SDS011;10885;52.830;13.788;2023-04-29T21:33:26;7.78;;;5.07;;
21448;SDS011;10885;52.830;13.788;2023-04-29T21:38:47;13.27;;;6.78;;
21448;SDS011;10885;52.830;13.788;2023-04-29T21:44:08;12.07;;;6.13;;
21448;SDS011;10885;52.830;13.788;2023-04-29T21:49:29;6.43;;;4.03;;
21448;SDS011;10885;52.830;13.788;2023-04-29T21:54:50;5.80;;;3.75;;
21448;SDS011;10885;52.830;13.788;2023-04-29T22:05:52;7.18;;;3.47;;
21448;SDS011;10885;52.830;13.788;2023-04-29T22:11:13;9.45;;;3.20;;
21448;SDS011;10885;52.830;13.788;2023-04-29T22:16:34;7.07;;;3.13;;
21448;SDS011;10885;52.830;13.788;2023-04-29T22:21:58;8.35;;;3.35;;
21448;SDS011;10885;52.830;13.788;2023-04-29T22:27:20;6.72;;;2.95;;
21448;SDS011;10885;52.830;13.788;2023-04-29T22:32:41;4.93;;;2.67;;
21448;SDS011;10885;52.830;13.788;2023-04-29T22:38:01;4.65;;;2.63;;
21448;SDS011;10885;52.830;13.788;2023-04-29T22:43:22;7.97;;;3.08;;
21448;SDS011;10885;52.830;13.788;2023-04-29T22:48:43;5.55;;;2.22;;
21448;SDS011;10885;52.830;13.788;2023-04-29T22:54:05;4.72;;;2.25;;
21448;SDS011;10885;52.830;13.788;2023-04-29T22:59:27;7.05;;;2.95;;
21448;SDS011;10885;52.830;13.788;2023-04-29T23:10:09;9.55;;;2.30;;
21448;SDS011;10885;52.830;13.788;2023-04-29T23:15:30;7.10;;;2.40;;
21448;SDS011;10885;52.830;13.788;2023-04-29T23:20:51;5.18;;;2.30;;
21448;SDS011;10885;52.830;13.788;2023-04-29T23:26:12;4.85;;;1.92;;
21448;SDS011;10885;52.830;13.788;2023-04-29T23:31:33;6.40;;;2.28;;
21448;SDS011;10885;52.830;13.788;2023-04-29T23:36:54;4.78;;;2.08;;
21448;SDS011;10885;52.830;13.788;2023-04-29T23:42:15;8.15;;;2.22;;
21448;SDS011;10885;52.830;13.788;2023-04-29T23:47:36;6.60;;;2.30;;
21448;SDS011;10885;52.830;13.788;2023-04-29T23:52:57;7.30;;;2.70;;
21448;SDS011;10885;52.830;13.788;2023-04-29T23:58:18;2.90;;;1.73;;
